createdAt,value
2018-04-11T00:00:20.812Z,21.70
2018-04-11T00:01:20.806Z,21.81
2018-04-11T00:02:20.800Z,21.74
2018-04-11T00:03:20.792Z,21.64
2018-04-11T00:04:20.787Z,21.73
2018-04-11T00:05:20.780Z,21.71
2018-04-11T00:06:20.773Z,21.71
2018-04-11T00:07:20.780Z,21.82
2018-04-11T00:08:20.760Z,21.81
2018-04-11T00:09:20.754Z,21.83
2018-04-11T00:10:20.750Z,21.74
2018-04-11T00:11:20.743Z,21.74
2018-04-11T00:12:20.737Z,21.79
2018-04-11T00:13:20.730Z,21.82
2018-04-11T00:14:20.724Z,21.86
2018-04-11T00:15:20.717Z,21.83
2018-04-11T00:16:20.712Z,21.79
2018-04-11T00:17:20.705Z,21.70
2018-04-11T00:18:20.699Z,21.68
2018-04-11T00:19:20.693Z,21.77
2018-04-11T00:20:20.688Z,21.73
2018-04-11T00:21:20.681Z,21.77
2018-04-11T00:22:20.675Z,21.73
2018-04-11T00:23:20.670Z,21.73
2018-04-11T00:24:20.663Z,21.71
2018-04-11T00:25:20.657Z,21.75
2018-04-11T00:26:20.651Z,21.83
2018-04-11T00:27:20.643Z,21.77
2018-04-11T00:28:20.638Z,21.73
2018-04-11T00:29:20.630Z,21.81
2018-04-11T00:30:20.622Z,21.81
2018-04-11T00:31:20.615Z,21.79
2018-04-11T00:32:20.607Z,21.83
2018-04-11T00:33:20.604Z,21.75
2018-04-11T00:34:20.593Z,21.71
2018-04-11T00:35:20.587Z,21.81
2018-04-11T00:36:20.581Z,21.79
2018-04-11T00:37:20.573Z,21.82
2018-04-11T00:38:20.566Z,21.73
2018-04-11T00:39:20.560Z,21.75
2018-04-11T00:40:20.554Z,21.77
2018-04-11T00:41:20.547Z,21.89
2018-04-11T00:42:20.540Z,21.89
2018-04-11T00:43:20.534Z,21.91
2018-04-11T00:44:20.528Z,21.90
2018-04-11T00:45:20.522Z,21.81
2018-04-11T00:46:20.541Z,21.73
2018-04-11T00:47:20.509Z,21.79
2018-04-11T00:48:20.503Z,21.79
2018-04-11T00:49:20.496Z,21.81
2018-04-11T00:50:20.489Z,21.82
2018-04-11T00:51:20.485Z,21.90
2018-04-11T00:52:20.477Z,21.83
2018-04-11T00:53:20.471Z,21.82
2018-04-11T00:54:20.465Z,21.89
2018-04-11T00:55:20.459Z,21.86
2018-04-11T00:56:20.451Z,21.91
2018-04-11T00:57:20.444Z,21.96
2018-04-11T00:58:20.442Z,22.04
2018-04-11T00:59:20.431Z,21.96
2018-04-11T01:00:20.425Z,21.98
2018-04-11T01:01:20.418Z,21.99
2018-04-11T01:02:20.412Z,21.98
2018-04-11T01:03:20.405Z,21.98
2018-04-11T01:04:20.399Z,22.01
2018-04-11T01:05:20.399Z,22.04
2018-04-11T01:06:20.388Z,22.11
2018-04-11T01:07:20.381Z,22.02
2018-04-11T01:08:20.375Z,21.99
2018-04-11T01:09:20.368Z,22.09
2018-04-11T01:10:20.363Z,22.01
2018-04-11T01:11:20.356Z,22.04
2018-04-11T01:12:20.350Z,21.94
2018-04-11T01:13:20.346Z,21.98
2018-04-11T01:14:20.335Z,21.91
2018-04-11T01:15:20.330Z,22.02
2018-04-11T01:16:20.326Z,22.02
2018-04-11T01:17:20.318Z,22.04
2018-04-11T01:18:20.311Z,22.01
2018-04-11T01:19:20.306Z,21.94
2018-04-11T01:20:20.298Z,21.94
2018-04-11T01:21:20.294Z,21.98
2018-04-11T01:22:20.344Z,21.91
2018-04-11T01:23:20.281Z,21.93
2018-04-11T01:24:20.274Z,21.96
2018-04-11T01:25:20.269Z,21.93
2018-04-11T01:26:20.261Z,21.98
2018-04-11T01:27:20.255Z,21.91
2018-04-11T01:28:20.248Z,21.91
2018-04-11T01:29:20.245Z,21.89
2018-04-11T01:30:20.236Z,21.83
2018-04-11T01:31:20.230Z,21.91
2018-04-11T01:32:20.227Z,21.86
2018-04-11T01:33:20.217Z,21.91
2018-04-11T01:34:20.209Z,21.91
2018-04-11T01:35:20.203Z,21.90
2018-04-11T01:36:20.198Z,21.90
2018-04-11T01:37:20.191Z,21.94
2018-04-11T01:38:20.185Z,21.93
2018-04-11T01:39:20.179Z,21.98
2018-04-11T01:40:20.172Z,22.05
2018-04-11T01:41:20.167Z,21.94
2018-04-11T01:42:20.158Z,21.99
2018-04-11T01:43:20.154Z,21.99
2018-04-11T01:44:20.146Z,22.02
2018-04-11T01:45:20.140Z,21.91
2018-04-11T01:46:20.133Z,21.93
2018-04-11T01:47:20.128Z,21.96
2018-04-11T01:48:20.121Z,21.93
2018-04-11T01:49:20.117Z,21.89
2018-04-11T01:50:20.108Z,21.91
2018-04-11T01:51:20.103Z,21.93
2018-04-11T01:52:20.101Z,21.91
2018-04-11T01:53:20.091Z,21.86
2018-04-11T01:54:20.085Z,21.91
2018-04-11T01:55:20.077Z,21.89
2018-04-11T01:56:20.071Z,21.82
2018-04-11T01:57:20.067Z,21.86
2018-04-11T01:58:20.060Z,21.82
2018-04-11T01:59:20.053Z,21.71
2018-04-11T02:00:20.047Z,21.74
2018-04-11T02:01:20.041Z,21.68
2018-04-11T02:02:20.034Z,21.67
2018-04-11T02:03:20.035Z,21.68
2018-04-11T02:04:20.022Z,21.58
2018-04-11T02:05:20.024Z,21.68
2018-04-11T02:06:20.012Z,21.68
2018-04-11T02:07:20.003Z,21.66
2018-04-11T02:08:19.996Z,21.64
2018-04-11T02:09:19.990Z,21.63
2018-04-11T02:10:19.983Z,21.59
2018-04-11T02:11:19.977Z,21.58
2018-04-11T02:12:19.970Z,21.56
2018-04-11T02:13:19.963Z,21.40
2018-04-11T02:14:19.982Z,21.40
2018-04-11T02:15:19.951Z,21.43
2018-04-11T02:16:19.943Z,21.37
2018-04-11T02:17:19.938Z,21.45
2018-04-11T02:18:19.931Z,21.51
2018-04-11T02:19:19.924Z,21.36
2018-04-11T02:20:19.916Z,21.40
2018-04-11T02:21:19.910Z,21.40
2018-04-11T02:22:19.903Z,21.38
2018-04-11T02:23:19.897Z,21.36
2018-04-11T02:24:19.891Z,21.27
2018-04-11T02:25:19.885Z,21.36
2018-04-11T02:26:19.877Z,21.36
2018-04-11T02:27:19.870Z,21.31
2018-04-11T02:28:19.864Z,21.27
2018-04-11T02:29:19.858Z,21.30
2018-04-11T02:30:19.851Z,21.27
2018-04-11T02:31:19.844Z,21.34
2018-04-11T02:32:19.838Z,21.31
2018-04-11T02:33:19.832Z,21.24
2018-04-11T02:34:19.823Z,21.36
2018-04-11T02:35:19.818Z,21.27
2018-04-11T02:36:19.812Z,21.36
2018-04-11T02:37:19.804Z,21.31
2018-04-11T02:38:19.796Z,21.31
2018-04-11T02:39:19.790Z,21.31
2018-04-11T02:40:19.784Z,21.30
2018-04-11T02:41:19.777Z,21.30
2018-04-11T02:42:19.769Z,21.30
2018-04-11T02:43:19.763Z,21.27
2018-04-11T02:44:19.758Z,21.30
2018-04-11T02:45:19.750Z,21.37
2018-04-11T02:46:19.742Z,21.22
2018-04-11T02:47:19.735Z,21.30
2018-04-11T02:48:19.729Z,21.31
2018-04-11T02:49:19.722Z,21.33
2018-04-11T02:50:19.715Z,21.28
2018-04-11T02:51:19.708Z,21.19
2018-04-11T02:52:19.701Z,21.18
2018-04-11T02:53:19.694Z,21.24
2018-04-11T02:54:19.686Z,21.21
2018-04-11T02:55:19.680Z,21.21
2018-04-11T02:56:19.673Z,21.12
2018-04-11T02:57:19.667Z,21.27
2018-04-11T02:58:19.659Z,21.16
2018-04-11T02:59:19.653Z,21.21
2018-04-11T03:00:19.701Z,21.16
2018-04-11T03:01:19.641Z,21.27
2018-04-11T03:02:19.632Z,21.19
2018-04-11T03:03:19.626Z,21.30
2018-04-11T03:04:19.619Z,21.19
2018-04-11T03:05:19.613Z,21.21
2018-04-11T03:06:19.608Z,21.24
2018-04-11T03:07:19.600Z,21.21
2018-04-11T03:08:19.594Z,21.19
2018-04-11T03:09:19.610Z,21.19
2018-04-11T03:10:19.579Z,21.22
2018-04-11T03:11:19.572Z,21.22
2018-04-11T03:12:19.566Z,21.18
2018-04-11T03:13:19.559Z,21.21
2018-04-11T03:14:19.552Z,21.18
2018-04-11T03:15:19.546Z,21.19
2018-04-11T03:16:19.539Z,21.08
2018-04-11T03:17:19.533Z,21.09
2018-04-11T03:18:19.525Z,21.00
2018-04-11T03:19:19.519Z,20.96
2018-04-11T03:20:19.512Z,20.94
2018-04-11T03:21:19.504Z,21.03
2018-04-11T03:22:19.497Z,21.08
2018-04-11T03:23:19.491Z,21.03
2018-04-11T03:24:19.483Z,21.05
2018-04-11T03:25:19.476Z,21.15
2018-04-11T03:26:19.468Z,21.11
2018-04-11T03:27:19.463Z,21.08
2018-04-11T03:28:19.456Z,21.13
2018-04-11T03:29:19.448Z,21.12
2018-04-11T03:30:19.442Z,21.16
2018-04-11T03:31:19.435Z,21.08
2018-04-11T03:32:19.429Z,21.11
2018-04-11T03:33:19.421Z,21.13
2018-04-11T03:34:19.414Z,21.03
2018-04-11T03:35:19.409Z,21.05
2018-04-11T03:36:19.400Z,21.01
2018-04-11T03:37:19.393Z,21.03
2018-04-11T03:38:19.387Z,21.01
2018-04-11T03:39:19.378Z,20.98
2018-04-11T03:40:19.376Z,20.97
2018-04-11T03:41:19.365Z,20.94
2018-04-11T03:42:19.361Z,20.87
2018-04-11T03:43:19.351Z,20.90
2018-04-11T03:44:19.345Z,20.87
2018-04-11T03:45:19.338Z,20.85
2018-04-11T03:46:19.330Z,20.85
2018-04-11T03:47:19.325Z,20.88
2018-04-11T03:48:19.318Z,20.88
2018-04-11T03:49:19.311Z,20.83
2018-04-11T03:50:19.302Z,20.81
2018-04-11T03:51:19.295Z,20.79
2018-04-11T03:52:19.288Z,20.81
2018-04-11T03:53:19.282Z,20.85
2018-04-11T03:54:19.274Z,20.76
2018-04-11T03:55:19.268Z,20.73
2018-04-11T03:56:19.263Z,20.78
2018-04-11T03:57:19.254Z,20.78
2018-04-11T03:58:19.247Z,20.76
2018-04-11T03:59:19.238Z,20.72
2018-04-11T04:00:19.231Z,20.69
2018-04-11T04:01:19.225Z,20.72
2018-04-11T04:02:19.217Z,20.71
2018-04-11T04:03:19.209Z,20.69
2018-04-11T04:04:19.203Z,20.68
2018-04-11T04:05:19.196Z,20.75
2018-04-11T04:06:19.188Z,20.78
2018-04-11T04:07:19.181Z,20.72
2018-04-11T04:08:19.174Z,20.72
2018-04-11T04:09:19.168Z,20.78
2018-04-11T04:10:19.164Z,20.75
2018-04-11T04:11:19.154Z,20.78
2018-04-11T04:12:19.147Z,20.71
2018-04-11T04:13:19.138Z,20.82
2018-04-11T04:14:19.132Z,20.78
2018-04-11T04:15:19.124Z,20.71
2018-04-11T04:16:19.118Z,20.78
2018-04-11T04:17:19.110Z,20.69
2018-04-11T04:18:19.103Z,20.68
2018-04-11T04:19:19.096Z,20.64
2018-04-11T04:20:19.089Z,20.68
2018-04-11T04:21:19.082Z,20.73
2018-04-11T04:22:19.075Z,20.73
2018-04-11T04:23:19.070Z,20.69
2018-04-11T04:24:19.060Z,20.71
2018-04-11T04:25:19.055Z,20.69
2018-04-11T04:26:19.048Z,20.71
2018-04-11T04:27:19.039Z,20.73
2018-04-11T04:28:19.033Z,20.76
2018-04-11T04:29:19.249Z,20.66
2018-04-11T04:30:19.017Z,20.66
2018-04-11T04:31:19.031Z,20.75
2018-04-11T04:32:19.227Z,20.69
2018-04-11T04:33:18.996Z,20.51
2018-04-11T04:34:18.988Z,20.58
2018-04-11T04:35:18.983Z,20.58
2018-04-11T04:36:18.974Z,20.57
2018-04-11T04:37:18.970Z,20.66
2018-04-11T04:38:18.960Z,20.66
2018-04-11T04:39:19.056Z,20.68
2018-04-11T04:40:18.946Z,20.64
2018-04-11T04:41:18.938Z,20.61
2018-04-11T04:42:18.930Z,20.61
2018-04-11T04:43:18.928Z,20.58
2018-04-11T04:44:18.918Z,20.58
2018-04-11T04:45:18.910Z,20.58
2018-04-11T04:46:18.902Z,20.57
2018-04-11T04:47:18.894Z,20.57
2018-04-11T04:48:18.887Z,20.61
2018-04-11T04:49:18.881Z,20.51
2018-04-11T04:50:18.904Z,20.57
2018-04-11T04:51:18.867Z,20.60
2018-04-11T04:52:18.859Z,20.60
2018-04-11T04:53:18.851Z,20.57
2018-04-11T04:54:18.843Z,20.63
2018-04-11T04:55:18.837Z,20.58
2018-04-11T04:56:18.830Z,20.51
2018-04-11T04:57:18.823Z,20.57
2018-04-11T04:58:18.815Z,20.53
2018-04-11T04:59:18.809Z,20.56
2018-04-11T05:00:18.801Z,20.57
2018-04-11T05:01:18.796Z,20.60
2018-04-11T05:02:18.787Z,20.66
2018-04-11T05:03:18.779Z,20.54
2018-04-11T05:04:18.771Z,20.57
2018-04-11T05:05:18.765Z,20.64
2018-04-11T05:06:18.759Z,20.64
2018-04-11T05:07:18.750Z,20.63
2018-04-11T05:08:18.745Z,20.56
2018-04-11T05:09:18.837Z,20.58
2018-04-11T05:10:18.728Z,20.53
2018-04-11T05:11:18.721Z,20.54
2018-04-11T05:12:18.715Z,20.51
2018-04-11T05:13:18.708Z,20.51
2018-04-11T05:14:18.700Z,20.56
2018-04-11T05:15:18.792Z,20.57
2018-04-11T05:16:18.686Z,20.51
2018-04-11T05:17:18.682Z,20.44
2018-04-11T05:18:18.671Z,20.35
2018-04-11T05:19:18.667Z,20.34
2018-04-11T05:20:18.657Z,20.42
2018-04-11T05:21:18.651Z,20.46
2018-04-11T05:22:18.643Z,20.42
2018-04-11T05:23:18.635Z,20.38
2018-04-11T05:24:18.629Z,20.44
2018-04-11T05:25:18.621Z,20.44
2018-04-11T05:26:18.613Z,20.37
2018-04-11T05:27:18.638Z,20.35
2018-04-11T05:28:18.602Z,20.25
2018-04-11T05:29:18.592Z,20.31
2018-04-11T05:30:18.584Z,20.20
2018-04-11T05:31:18.577Z,20.30
2018-04-11T05:32:18.570Z,20.35
2018-04-11T05:33:18.563Z,20.33
2018-04-11T05:34:18.554Z,20.33
2018-04-11T05:35:18.547Z,20.35
2018-04-11T05:36:18.540Z,20.27
2018-04-11T05:37:18.535Z,20.33
2018-04-11T05:38:18.526Z,20.34
2018-04-11T05:39:18.518Z,20.38
2018-04-11T05:40:18.512Z,20.41
2018-04-11T05:41:18.506Z,20.26
2018-04-11T05:42:18.495Z,20.40
2018-04-11T05:43:18.488Z,20.33
2018-04-11T05:44:18.482Z,20.30
2018-04-11T05:45:18.473Z,20.34
2018-04-11T05:46:18.466Z,20.40
2018-04-11T05:47:18.460Z,20.37
2018-04-11T05:48:18.452Z,20.35
2018-04-11T05:49:18.445Z,20.41
2018-04-11T05:50:18.437Z,20.40
2018-04-11T05:51:18.430Z,20.33
2018-04-11T05:52:18.422Z,20.35
2018-04-11T05:53:18.415Z,20.25
2018-04-11T05:54:18.409Z,20.19
2018-04-11T05:55:18.400Z,20.22
2018-04-11T05:56:18.393Z,20.26
2018-04-11T05:57:18.387Z,20.20
2018-04-11T05:58:18.377Z,20.22
2018-04-11T05:59:18.372Z,20.22
2018-04-11T06:00:18.363Z,20.26
2018-04-11T06:01:18.362Z,20.20
2018-04-11T06:02:18.349Z,20.19
2018-04-11T06:03:18.341Z,20.19
2018-04-11T06:04:18.334Z,20.08
2018-04-11T06:05:18.327Z,20.15
2018-04-11T06:06:18.319Z,20.12
2018-04-11T06:07:18.313Z,20.12
2018-04-11T06:08:18.305Z,20.08
2018-04-11T06:09:18.398Z,20.02
2018-04-11T06:10:18.289Z,20.12
2018-04-11T06:11:18.283Z,20.07
2018-04-11T06:12:18.275Z,20.08
2018-04-11T06:13:18.267Z,20.02
2018-04-11T06:14:18.258Z,20.04
2018-04-11T06:15:18.253Z,20.10
2018-04-11T06:16:18.244Z,20.04
2018-04-11T06:17:18.237Z,20.13
2018-04-11T06:18:18.229Z,20.02
2018-04-11T06:19:18.221Z,20.16
2018-04-11T06:20:18.217Z,20.13
2018-04-11T06:21:18.207Z,20.13
2018-04-11T06:22:18.198Z,20.05
2018-04-11T06:23:18.192Z,20.13
2018-04-11T06:24:18.184Z,20.19
2018-04-11T06:25:18.176Z,20.25
2018-04-11T06:26:18.168Z,20.23
2018-04-11T06:27:18.160Z,20.25
2018-04-11T06:28:18.156Z,20.30
2018-04-11T06:29:18.146Z,20.27
2018-04-11T06:30:18.138Z,20.23
2018-04-11T06:31:18.130Z,20.33
2018-04-11T06:32:18.123Z,20.26
2018-04-11T06:33:18.117Z,20.31
2018-04-11T06:34:18.108Z,20.31
2018-04-11T06:35:18.100Z,20.30
2018-04-11T06:36:18.095Z,20.35
2018-04-11T06:37:18.086Z,20.25
2018-04-11T06:38:18.078Z,20.22
2018-04-11T06:39:18.179Z,20.22
2018-04-11T06:40:18.064Z,20.27
2018-04-11T06:41:18.057Z,20.20
2018-04-11T06:42:18.048Z,20.20
2018-04-11T06:43:18.041Z,20.25
2018-04-11T06:44:18.034Z,20.22
2018-04-11T06:45:18.127Z,20.25
2018-04-11T06:46:18.018Z,20.23
2018-04-11T06:47:18.050Z,20.26
2018-04-11T06:48:18.004Z,20.25
2018-04-11T06:49:17.997Z,20.25
2018-04-11T06:50:17.990Z,20.17
2018-04-11T06:51:18.083Z,20.04
2018-04-11T06:52:17.974Z,20.10
2018-04-11T06:53:17.968Z,20.15
2018-04-11T06:54:17.963Z,20.17
2018-04-11T06:55:17.959Z,20.16
2018-04-11T06:56:17.945Z,20.04
2018-04-11T06:57:17.938Z,20.16
2018-04-11T06:58:17.967Z,20.07
2018-04-11T06:59:17.922Z,20.15
2018-04-11T07:00:17.917Z,20.17
2018-04-11T07:01:17.908Z,20.12
2018-04-11T07:02:17.904Z,20.05
2018-04-11T07:03:17.894Z,20.02
2018-04-11T07:04:17.885Z,20.02
2018-04-11T07:05:17.879Z,20.12
2018-04-11T07:06:17.874Z,20.01
2018-04-11T07:07:17.863Z,19.98
2018-04-11T07:08:17.857Z,20.15
2018-04-11T07:09:17.849Z,20.07
2018-04-11T07:10:17.843Z,20.13
2018-04-11T07:11:17.833Z,20.02
2018-04-11T07:12:17.826Z,20.04
2018-04-11T07:13:17.819Z,20.07
2018-04-11T07:14:17.811Z,20.12
2018-04-11T07:15:17.804Z,20.05
2018-04-11T07:16:17.797Z,20.13
2018-04-11T07:17:17.789Z,20.07
2018-04-11T07:18:17.781Z,20.10
2018-04-11T07:19:17.775Z,20.19
2018-04-11T07:20:17.784Z,20.15
2018-04-11T07:21:17.782Z,20.17
2018-04-11T07:22:17.787Z,20.22
2018-04-11T07:23:17.769Z,20.16
2018-04-11T07:24:17.758Z,20.20
2018-04-11T07:25:17.752Z,20.26
2018-04-11T07:26:17.728Z,20.33
2018-04-11T07:27:17.723Z,20.33
2018-04-11T07:28:17.714Z,20.35
2018-04-11T07:29:17.701Z,20.35
2018-04-11T07:30:17.700Z,20.38
2018-04-11T07:31:17.689Z,20.35
2018-04-11T07:32:17.687Z,20.35
2018-04-11T07:33:17.672Z,20.33
2018-04-11T07:34:17.664Z,20.37
2018-04-11T07:35:17.656Z,20.37
2018-04-11T07:36:17.648Z,20.37
2018-04-11T07:37:17.643Z,20.44
2018-04-11T07:38:17.642Z,20.41
2018-04-11T07:39:17.640Z,20.35
2018-04-11T07:40:17.622Z,20.35
2018-04-11T07:41:17.614Z,20.37
2018-04-11T07:42:17.605Z,20.44
2018-04-11T07:43:17.598Z,20.48
2018-04-11T07:44:17.592Z,20.44
2018-04-11T07:45:17.586Z,20.37
2018-04-11T07:46:17.575Z,20.44
2018-04-11T07:47:17.569Z,20.53
2018-04-11T07:48:17.562Z,20.53
2018-04-11T07:49:17.555Z,20.51
2018-04-11T07:50:17.547Z,20.51
2018-04-11T07:51:17.540Z,20.60
2018-04-11T07:52:17.533Z,20.54
2018-04-11T07:53:17.526Z,20.51
2018-04-11T07:54:17.518Z,20.51
2018-04-11T07:55:17.516Z,20.53
2018-04-11T07:56:17.506Z,20.57
2018-04-11T07:57:17.498Z,20.58
2018-04-11T07:58:17.490Z,20.57
2018-04-11T07:59:17.483Z,20.57
2018-04-11T08:00:17.478Z,20.61
2018-04-11T08:01:17.469Z,20.53
2018-04-11T08:02:17.462Z,20.58
2018-04-11T08:03:17.622Z,20.56
2018-04-11T08:04:17.453Z,20.57
2018-04-11T08:05:17.443Z,20.64
2018-04-11T08:06:17.432Z,20.63
2018-04-11T08:07:17.427Z,20.57
2018-04-11T08:08:17.422Z,20.50
2018-04-11T08:09:17.413Z,20.56
2018-04-11T08:10:17.405Z,20.53
2018-04-11T08:11:17.399Z,20.69
2018-04-11T08:12:17.390Z,20.73
2018-04-11T08:13:17.384Z,20.72
2018-04-11T08:14:17.375Z,20.66
2018-04-11T08:15:17.469Z,20.71
2018-04-11T08:16:17.402Z,20.69
2018-04-11T08:17:17.355Z,20.60
2018-04-11T08:18:17.347Z,20.69
2018-04-11T08:19:17.342Z,20.66
2018-04-11T08:20:17.334Z,20.69
2018-04-11T08:21:17.326Z,20.64
2018-04-11T08:22:17.320Z,20.66
2018-04-11T08:23:17.319Z,20.71
2018-04-11T08:24:17.305Z,20.66
2018-04-11T08:25:17.298Z,20.54
2018-04-11T08:26:17.291Z,20.64
2018-04-11T08:27:17.284Z,20.57
2018-04-11T08:28:17.278Z,20.68
2018-04-11T08:29:17.270Z,20.66
2018-04-11T08:30:17.268Z,20.63
2018-04-11T08:31:17.255Z,20.68
2018-04-11T08:32:17.248Z,20.68
2018-04-11T08:33:17.241Z,20.72
2018-04-11T08:34:17.233Z,20.72
2018-04-11T08:35:17.228Z,20.75
2018-04-11T08:36:17.219Z,20.73
2018-04-11T08:37:17.214Z,20.69
2018-04-11T08:38:17.205Z,20.76
2018-04-11T08:39:17.199Z,20.85
2018-04-11T08:40:17.191Z,20.82
2018-04-11T08:41:17.184Z,20.83
2018-04-11T08:42:17.178Z,20.83
2018-04-11T08:43:17.170Z,20.87
2018-04-11T08:44:17.164Z,20.90
2018-04-11T08:45:17.256Z,20.91
2018-04-11T08:46:17.148Z,20.93
2018-04-11T08:47:17.145Z,20.85
2018-04-11T08:48:17.135Z,20.94
2018-04-11T08:49:17.129Z,20.88
2018-04-11T08:50:17.123Z,20.90
2018-04-11T08:51:17.113Z,20.91
2018-04-11T08:52:17.108Z,20.91
2018-04-11T08:53:17.103Z,20.90
2018-04-11T08:54:17.093Z,20.94
2018-04-11T08:55:17.085Z,20.90
2018-04-11T08:56:17.079Z,20.82
2018-04-11T08:57:17.073Z,20.76
2018-04-11T08:58:17.068Z,20.72
2018-04-11T08:59:17.059Z,20.56
2018-04-11T09:00:17.051Z,20.64
2018-04-11T09:01:17.044Z,20.54
2018-04-11T09:02:17.037Z,20.58
2018-04-11T09:03:17.030Z,20.58
2018-04-11T09:04:17.022Z,20.54
2018-04-11T09:05:17.016Z,20.56
2018-04-11T09:06:17.008Z,20.57
2018-04-11T09:07:17.002Z,20.56
2018-04-11T09:08:16.994Z,20.56
2018-04-11T09:09:16.989Z,20.51
2018-04-11T09:10:16.981Z,20.57
2018-04-11T09:11:16.973Z,20.61
2018-04-11T09:12:16.965Z,20.58
2018-04-11T09:13:16.958Z,20.57
2018-04-11T09:14:16.951Z,20.53
2018-04-11T09:15:16.944Z,20.61
2018-04-11T09:16:16.943Z,20.63
2018-04-11T09:17:16.930Z,20.60
2018-04-11T09:18:16.921Z,20.60
2018-04-11T09:19:16.916Z,20.56
2018-04-11T09:20:16.908Z,20.51
2018-04-11T09:21:16.902Z,20.54
2018-04-11T09:22:16.894Z,20.61
2018-04-11T09:23:16.885Z,20.60
2018-04-11T09:24:16.880Z,20.69
2018-04-11T09:25:16.871Z,20.63
2018-04-11T09:26:16.863Z,20.73
2018-04-11T09:27:16.857Z,20.73
2018-04-11T09:28:16.850Z,20.73
2018-04-11T09:29:16.843Z,20.75
2018-04-11T09:30:16.837Z,20.76
2018-04-11T09:31:16.828Z,20.68
2018-04-11T09:32:16.822Z,20.71
2018-04-11T09:33:16.815Z,20.78
2018-04-11T09:34:16.807Z,20.73
2018-04-11T09:35:16.800Z,20.69
2018-04-11T09:36:16.794Z,20.69
2018-04-11T09:37:16.787Z,20.72
2018-04-11T09:38:16.778Z,20.69
2018-04-11T09:39:16.871Z,20.69
2018-04-11T09:40:16.764Z,20.72
2018-04-11T09:41:16.758Z,20.72
2018-04-11T09:42:16.751Z,20.69
2018-04-11T09:43:16.743Z,20.76
2018-04-11T09:44:16.737Z,20.78
2018-04-11T09:45:16.729Z,20.73
2018-04-11T09:46:16.721Z,20.75
2018-04-11T09:47:16.715Z,20.82
2018-04-11T09:48:16.711Z,20.81
2018-04-11T09:49:16.701Z,20.83
2018-04-11T09:50:16.693Z,20.90
2018-04-11T09:51:16.686Z,21.00
2018-04-11T09:52:16.685Z,20.98
2018-04-11T09:53:16.672Z,20.93
2018-04-11T09:54:16.666Z,20.97
2018-04-11T09:55:16.659Z,20.96
2018-04-11T09:56:16.652Z,20.94
2018-04-11T09:57:16.649Z,20.97
2018-04-11T09:58:16.637Z,21.03
2018-04-11T09:59:16.632Z,20.97
2018-04-11T10:00:16.629Z,20.94
2018-04-11T10:01:16.619Z,20.98
2018-04-11T10:02:16.609Z,20.91
2018-04-11T10:03:16.605Z,20.93
2018-04-11T10:04:16.596Z,20.96
2018-04-11T10:05:16.590Z,20.94
2018-04-11T10:06:16.584Z,20.94
2018-04-11T10:07:16.576Z,21.01
2018-04-11T10:08:16.569Z,21.01
2018-04-11T10:09:16.566Z,21.00
2018-04-11T10:10:16.555Z,21.13
2018-04-11T10:11:16.550Z,21.09
2018-04-11T10:12:16.543Z,21.11
2018-04-11T10:13:16.535Z,21.08
2018-04-11T10:14:16.527Z,21.11
2018-04-11T10:15:16.522Z,20.93
2018-04-11T10:16:16.514Z,20.98
2018-04-11T10:17:16.507Z,20.94
2018-04-11T10:18:16.500Z,21.01
2018-04-11T10:19:16.494Z,21.01
2018-04-11T10:20:16.487Z,20.96
2018-04-11T10:21:16.480Z,20.98
2018-04-11T10:22:16.472Z,21.03
2018-04-11T10:23:16.465Z,21.05
2018-04-11T10:24:16.459Z,21.06
2018-04-11T10:25:16.459Z,21.01
2018-04-11T10:26:16.444Z,21.11
2018-04-11T10:27:16.437Z,21.08
2018-04-11T10:28:16.432Z,21.12
2018-04-11T10:29:16.424Z,21.09
2018-04-11T10:30:16.418Z,21.09
2018-04-11T10:31:16.412Z,21.12
2018-04-11T10:32:16.405Z,21.06
2018-04-11T10:33:16.396Z,21.03
2018-04-11T10:34:16.391Z,21.01
2018-04-11T10:35:16.382Z,21.11
2018-04-11T10:36:16.375Z,21.08
2018-04-11T10:37:16.378Z,21.09
2018-04-11T10:38:16.360Z,21.19
2018-04-11T10:39:16.354Z,21.12
2018-04-11T10:40:16.348Z,21.22
2018-04-11T10:41:16.341Z,21.06
2018-04-11T10:42:16.334Z,21.11
2018-04-11T10:43:16.326Z,21.05
2018-04-11T10:44:16.319Z,21.12
2018-04-11T10:45:16.314Z,21.15
2018-04-11T10:46:16.333Z,21.15
2018-04-11T10:47:16.299Z,21.26
2018-04-11T10:48:16.292Z,21.21
2018-04-11T10:49:16.287Z,21.18
2018-04-11T10:50:16.278Z,21.21
2018-04-11T10:51:16.271Z,21.19
2018-04-11T10:52:16.279Z,21.31
2018-04-11T10:53:16.262Z,21.27
2018-04-11T10:54:16.250Z,21.30
2018-04-11T10:55:16.243Z,21.34
2018-04-11T10:56:16.239Z,21.26
2018-04-11T10:57:16.230Z,21.28
2018-04-11T10:58:16.223Z,21.33
2018-04-11T10:59:16.224Z,21.33
2018-04-11T11:00:16.211Z,21.31
2018-04-11T11:01:16.206Z,21.43
2018-04-11T11:02:16.195Z,21.37
2018-04-11T11:03:16.199Z,21.43
2018-04-11T11:04:16.228Z,21.34
2018-04-11T11:05:16.200Z,21.28
2018-04-11T11:06:16.173Z,21.26
2018-04-11T11:07:16.196Z,21.33
2018-04-11T11:08:16.184Z,21.28
2018-04-11T11:09:16.157Z,21.31
2018-04-11T11:10:16.141Z,21.37
2018-04-11T11:11:16.136Z,21.27
2018-04-11T11:12:16.130Z,21.30
2018-04-11T11:13:16.124Z,21.34
2018-04-11T11:14:16.115Z,21.37
2018-04-11T11:15:16.107Z,21.37
2018-04-11T11:16:16.101Z,21.40
2018-04-11T11:17:16.095Z,21.37
2018-04-11T11:18:16.090Z,21.43
2018-04-11T11:19:16.081Z,21.34
2018-04-11T11:20:16.075Z,21.31
2018-04-11T11:21:16.067Z,21.46
2018-04-11T11:22:16.063Z,21.42
2018-04-11T11:23:16.054Z,21.38
2018-04-11T11:24:16.047Z,21.37
2018-04-11T11:25:16.040Z,21.58
2018-04-11T11:26:16.034Z,21.52
2018-04-11T11:27:16.028Z,21.45
2018-04-11T11:28:16.070Z,21.38
2018-04-11T11:29:16.015Z,21.40
2018-04-11T11:30:16.008Z,21.27
2018-04-11T11:31:16.000Z,21.21
2018-04-11T11:32:15.994Z,21.18
2018-04-11T11:33:15.990Z,21.19
2018-04-11T11:34:15.981Z,21.19
2018-04-11T11:35:15.973Z,21.26
2018-04-11T11:36:15.966Z,21.28
2018-04-11T11:37:15.960Z,21.37
2018-04-11T11:38:15.954Z,21.31
2018-04-11T11:39:15.946Z,21.37
2018-04-11T11:40:15.950Z,21.36
2018-04-11T11:41:15.933Z,21.46
2018-04-11T11:42:15.940Z,21.48
2018-04-11T11:43:15.921Z,21.56
2018-04-11T11:44:15.919Z,21.70
2018-04-11T11:45:15.907Z,21.64
2018-04-11T11:46:15.899Z,21.66
2018-04-11T11:47:15.897Z,21.82
2018-04-11T11:48:15.886Z,21.81
2018-04-11T11:49:15.879Z,21.82
2018-04-11T11:50:15.875Z,21.91
2018-04-11T11:51:15.866Z,22.02
2018-04-11T11:52:15.861Z,21.99
2018-04-11T11:53:15.853Z,22.06
2018-04-11T11:54:15.847Z,21.99
2018-04-11T11:55:15.840Z,22.11
2018-04-11T11:56:15.836Z,22.09
2018-04-11T11:57:15.838Z,22.14
2018-04-11T11:58:15.820Z,22.27
2018-04-11T11:59:15.815Z,22.38
2018-04-11T12:00:15.808Z,22.61
2018-04-11T12:01:15.802Z,22.49
2018-04-11T12:02:15.818Z,22.75
2018-04-11T12:03:15.791Z,22.84
2018-04-11T12:04:15.784Z,22.91
2018-04-11T12:05:15.777Z,23.21
2018-04-11T12:06:15.773Z,23.21
2018-04-11T12:07:15.766Z,23.18
2018-04-11T12:08:15.760Z,23.22
2018-04-11T12:09:15.755Z,23.37
2018-04-11T12:10:15.748Z,23.37
2018-04-11T12:11:15.743Z,23.44
2018-04-11T12:12:15.737Z,23.45
2018-04-11T12:13:15.733Z,23.59
2018-04-11T12:14:15.727Z,23.63
2018-04-11T12:15:15.720Z,23.69
2018-04-11T12:16:15.715Z,23.67
2018-04-11T12:17:15.713Z,23.86
2018-04-11T12:18:15.706Z,24.26
2018-04-11T12:19:15.702Z,24.15
2018-04-11T12:20:15.695Z,24.09
2018-04-11T12:21:15.704Z,24.00
2018-04-11T12:22:15.685Z,23.96
2018-04-11T12:23:15.679Z,23.89
2018-04-11T12:24:15.674Z,23.75
2018-04-11T12:25:15.668Z,23.87
2018-04-11T12:26:15.664Z,23.94
2018-04-11T12:27:15.657Z,24.15
2018-04-11T12:28:15.661Z,24.15
2018-04-11T12:29:15.648Z,24.18
2018-04-11T12:30:15.643Z,24.36
2018-04-11T12:31:15.638Z,24.51
2018-04-11T12:32:15.635Z,24.64
2018-04-11T12:33:15.628Z,24.90
2018-04-11T12:34:15.623Z,24.98
2018-04-11T12:35:15.619Z,25.11
2018-04-11T12:36:15.616Z,25.30
2018-04-11T12:37:15.624Z,25.46
2018-04-11T12:38:15.607Z,25.41
2018-04-11T12:39:15.602Z,25.48
2018-04-11T12:40:15.601Z,25.59
2018-04-11T12:41:15.597Z,25.82
2018-04-11T12:42:15.590Z,25.38
2018-04-11T12:43:15.587Z,25.31
2018-04-11T12:44:15.583Z,25.22
2018-04-11T12:45:15.580Z,25.26
2018-04-11T12:46:15.578Z,25.29
2018-04-11T12:47:15.576Z,25.38
2018-04-11T12:48:15.580Z,25.48
2018-04-11T12:49:15.595Z,25.61
2018-04-11T12:50:15.560Z,25.81
2018-04-11T12:51:15.565Z,26.21
2018-04-11T12:52:15.556Z,26.31